Georgetown, TX (78626)

1:24 PM CST on February 23, 2017 (GMT -0600)
Longhorn Weather Center | | Change Station

Elev 715 ft 30.63 °N, 97.66 °W | Updated 0 second ago

Clear
Clear
90.1 °F
Feels Like 87 °F
N
7.3
Wind Variable Wind from NNW
Gusts 162.2 mph

Today
High -- | Low -- °F
--% Chance of Precip.
Yesterday
High -- | Low -- °F
Precip. -- in
Pressure 29.63 in
Visibility 10.0 miles
Clouds Clear
Heat Index 87 °F
Dew Point 52 °F
Humidity 27%
Rainfall 4.32 in
Snow Depth Not available.
7:03 AM 6:25 PM
Waning Crescent, 9% visible
METAR KGTU 231848Z 16012KT 10SM SKC 30/07 A2963
Pressure 29.63 in
Visibility 10.0 miles
Clouds Clear
Heat Index 87 °F
Dew Point 52 °F
Humidity 27%
Rainfall 4.32 in
Snow Depth Not available.
7:03 AM 6:25 PM
Waning Crescent, 9% visible
METAR KGTU 231848Z 16012KT 10SM SKC 30/07 A2963

Get Your Daily Forecast Email!

Thanks for signing up!

Be on the lookout for a verification email in your inbox.

You'll start receiving the daily forecast at 8 AM.

×

10-Day Weather Forecast

Almanac

Astronomy

Feb. 23, 2017 Rise Set
Actual Time
Civil Twilight
Nautical Twilight
Astronomical Twilight
Moon
Length of Visible Light
Length of Day
Tomorrow will be .
, % of the Moon is Illuminated

Today's Extremes

State Highs State Lows

Community

WunderPhotos

Upload Photos

1,962,540 photos uploaded!

WunderBlog® & News

Nearby

Air Quality

  Air Quality AQ Index Pollutant
Not available.

Snow Depth

Station Depth Elevation

Earthquake Activity

City Distance Mag. Time & Date
Minimum magnitude displayed is 2.5.

Coastal Water Temperatures

Place Temperature

Stations

Nearby Weather Stations

Station Location Temp. Windchill Dew Point Humidity Wind Precip. Elev Updated Type
                   

Watches & Warnings

There are currently no watches in effect.